Time;durP1;ratioP1;P1;durP2;ratioP2;P2;SDS_P1;SDS_P2;PMS_P1;PMS_P2;Temp;Humidity;BMP_temperature;BMP_pressure;BME280_temperature;BME280_humidity;BME280_pressure;Samples;Min_cycle;Max_cycle;Signal;HPM_P1;HPM_P2
2021/06/27 00:01:12;;;;;;;8.70;7.90;;;19.20;99.90;;;;;;5015966;28;20462;-72
2021/06/27 00:03:38;;;;;;;7.93;7.40;;;19.20;99.90;;;;;;5021920;28;20466;-72
2021/06/27 00:06:05;;;;;;;8.87;8.17;;;19.20;99.90;;;;;;5001454;28;20428;-72
2021/06/27 00:08:31;;;;;;;8.50;7.80;;;19.20;99.90;;;;;;5010697;28;20481;-72
2021/06/27 00:10:58;;;;;;;8.60;7.90;;;19.10;99.90;;;;;;5001145;28;20431;-72
2021/06/27 00:13:28;;;;;;;8.60;7.93;;;19.10;99.90;;;;;;5002316;28;20446;-72
2021/06/27 00:15:55;;;;;;;8.30;7.60;;;19.10;99.90;;;;;;5010820;28;20426;-72
2021/06/27 00:18:23;;;;;;;8.47;7.67;;;19.10;99.90;;;;;;5007867;28;20422;-71
2021/06/27 00:20:51;;;;;;;8.30;7.60;;;19.10;99.90;;;;;;5016368;28;20465;-72
2021/06/27 00:23:20;;;;;;;8.93;8.03;;;19.10;99.90;;;;;;5008376;28;20533;-72
2021/06/27 00:25:46;;;;;;;8.90;8.03;;;19.10;99.90;;;;;;5016316;28;20515;-72
2021/06/27 00:28:12;;;;;;;8.70;8.00;;;19.10;99.90;;;;;;5019305;28;20510;-73
2021/06/27 00:30:38;;;;;;;8.23;7.63;;;19.10;99.90;;;;;;5012598;28;20207;-72
2021/06/27 00:33:05;;;;;;;9.20;8.40;;;19.10;99.90;;;;;;5012967;28;20208;-72
2021/06/27 00:35:32;;;;;;;8.63;7.93;;;19.00;99.90;;;;;;5021176;28;20442;-72
2021/06/27 00:37:59;;;;;;;8.60;7.90;;;19.00;99.90;;;;;;5018645;28;20436;-72
2021/06/27 00:40:27;;;;;;;10.30;9.30;;;19.00;99.90;;;;;;5001952;28;20430;-72
2021/06/27 00:42:54;;;;;;;8.67;7.97;;;19.00;99.90;;;;;;5013240;28;20448;-73
2021/06/27 00:45:22;;;;;;;9.60;8.07;;;18.90;99.90;;;;;;5008098;28;20423;-73
2021/06/27 00:47:49;;;;;;;8.07;7.37;;;18.90;99.90;;;;;;5007749;28;20965;-72
2021/06/27 00:50:24;;;;;;;8.40;7.80;;;18.90;99.90;;;;;;5012913;28;20423;-72
2021/06/27 00:52:51;;;;;;;8.37;7.67;;;18.90;99.90;;;;;;5007419;28;20542;-72
2021/06/27 00:55:17;;;;;;;9.20;8.40;;;18.90;99.90;;;;;;5013752;28;20432;-73
2021/06/27 00:57:45;;;;;;;8.80;8.10;;;18.90;99.90;;;;;;5013479;28;21049;-72
2021/06/27 01:00:14;;;;;;;10.03;9.23;;;18.80;99.90;;;;;;5007555;28;20427;-72
2021/06/27 01:02:40;;;;;;;7.83;7.27;;;18.80;99.90;;;;;;5015019;28;20469;-73
2021/06/27 01:05:12;;;;;;;9.47;8.77;;;18.80;99.90;;;;;;5012628;28;20435;-72
2021/06/27 01:07:38;;;;;;;8.67;7.80;;;18.80;99.90;;;;;;5013246;28;20462;-72
2021/06/27 01:10:04;;;;;;;9.23;8.43;;;18.80;99.90;;;;;;5015552;28;20532;-73
2021/06/27 01:12:30;;;;;;;9.17;8.37;;;18.80;99.90;;;;;;4998472;28;20214;-73
2021/06/27 01:14:55;;;;;;;8.77;7.97;;;18.80;99.90;;;;;;5004266;28;20437;-72
2021/06/27 01:17:22;;;;;;;9.83;9.03;;;18.80;99.90;;;;;;5006255;28;20191;-72
2021/06/27 01:19:47;;;;;;;9.47;8.60;;;18.80;99.90;;;;;;5011099;28;20196;-73
2021/06/27 01:22:13;;;;;;;9.13;8.30;;;18.70;99.90;;;;;;5008328;28;20475;-72
2021/06/27 01:24:39;;;;;;;9.57;8.77;;;18.70;99.90;;;;;;5015298;28;20198;-73
2021/06/27 01:27:05;;;;;;;8.90;8.20;;;18.70;99.90;;;;;;5016578;28;20180;-72
2021/06/27 01:29:31;;;;;;;9.30;8.40;;;18.70;99.90;;;;;;5010633;28;20809;-72
2021/06/27 01:31:58;;;;;;;8.90;8.20;;;18.70;99.90;;;;;;5016605;28;20409;-73
2021/06/27 01:34:24;;;;;;;9.67;8.87;;;18.70;99.90;;;;;;5012947;28;20207;-73
2021/06/27 01:36:50;;;;;;;9.70;8.80;;;18.70;99.90;;;;;;5008014;28;20446;-73
2021/06/27 01:39:15;;;;;;;8.80;8.20;;;18.70;99.90;;;;;;5000498;28;21142;-73
2021/06/27 01:41:48;;;;;;;8.60;7.90;;;18.70;99.90;;;;;;5014193;28;20380;-73
2021/06/27 01:44:14;;;;;;;9.73;9.03;;;18.70;99.90;;;;;;5007062;28;20287;-72
2021/06/27 01:46:40;;;;;;;9.17;8.47;;;18.70;99.90;;;;;;5001907;28;20599;-72
2021/06/27 01:49:06;;;;;;;8.83;8.13;;;18.70;99.90;;;;;;5016269;28;20180;-72
2021/06/27 01:51:31;;;;;;;9.63;8.73;;;18.70;99.90;;;;;;5004300;28;20187;-72
2021/06/27 01:53:57;;;;;;;10.47;9.60;;;18.70;99.90;;;;;;5009595;28;20563;-72
2021/06/27 01:56:22;;;;;;;9.40;8.60;;;18.70;99.90;;;;;;4997841;28;20182;-72
2021/06/27 01:58:51;;;;;;;8.90;8.10;;;18.70;99.90;;;;;;5005839;28;20227;-72
2021/06/27 02:01:26;;;;;;;9.33;8.57;;;18.80;99.90;;;;;;5011064;28;20230;-72
2021/06/27 02:03:52;;;;;;;9.30;8.50;;;18.80;99.90;;;;;;5013508;28;21237;-72
2021/06/27 02:06:20;;;;;;;9.23;8.43;;;18.90;99.90;;;;;;5012202;28;20772;-72
2021/06/27 02:08:47;;;;;;;8.90;8.20;;;18.90;99.90;;;;;;5015698;28;20427;-72
2021/06/27 02:11:15;;;;;;;10.10;9.10;;;18.90;99.90;;;;;;5006517;28;20419;-71
2021/06/27 02:13:43;;;;;;;10.27;9.37;;;19.00;99.90;;;;;;5000555;28;20966;-73
2021/06/27 02:16:09;;;;;;;9.90;9.00;;;19.00;99.90;;;;;;5012761;28;20970;-73
2021/06/27 02:18:44;;;;;;;10.30;9.50;;;19.00;99.90;;;;;;5014060;28;20422;-73
2021/06/27 02:21:24;;;;;;;9.67;8.77;;;18.90;99.90;;;;;;5017185;28;20500;-73
2021/06/27 02:23:50;;;;;;;9.70;8.80;;;18.90;99.90;;;;;;5005418;28;20492;-73
2021/06/27 02:26:17;;;;;;;11.03;9.93;;;19.00;99.90;;;;;;5017330;28;20438;-73
2021/06/27 02:28:43;;;;;;;10.03;9.13;;;18.90;99.90;;;;;;4997886;28;20542;-71
2021/06/27 02:31:09;;;;;;;11.00;10.10;;;19.00;99.90;;;;;;4998876;28;21004;-73
2021/06/27 02:33:35;;;;;;;10.50;9.37;;;18.90;99.90;;;;;;5018023;28;20203;-72
2021/06/27 02:36:01;;;;;;;11.23;10.23;;;18.90;99.90;;;;;;5017364;28;20513;-71
2021/06/27 02:38:26;;;;;;;10.00;9.20;;;18.90;99.90;;;;;;5004866;28;20549;-71
2021/06/27 02:40:54;;;;;;;9.90;9.00;;;18.90;99.90;;;;;;5012818;28;20520;-69
2021/06/27 02:43:20;;;;;;;9.73;8.93;;;18.90;99.90;;;;;;5001220;28;20268;-70
2021/06/27 02:45:47;;;;;;;10.40;9.60;;;18.90;99.90;;;;;;5010944;28;20913;-74
2021/06/27 02:48:13;;;;;;;10.33;9.60;;;18.90;99.90;;;;;;5013740;28;20200;-71
2021/06/27 02:50:40;;;;;;;10.10;9.37;;;18.90;99.90;;;;;;5007276;28;20430;-71
2021/06/27 02:53:07;;;;;;;9.50;8.70;;;18.90;99.90;;;;;;5007916;28;20448;-72
2021/06/27 02:55:33;;;;;;;10.60;9.60;;;18.90;99.90;;;;;;5013641;28;20442;-71
2021/06/27 02:57:59;;;;;;;10.30;9.50;;;18.90;99.90;;;;;;5016230;28;20425;-71
2021/06/27 03:00:25;;;;;;;10.77;9.70;;;18.90;99.90;;;;;;5006699;28;20187;-71
2021/06/27 03:02:50;;;;;;;9.53;8.83;;;18.90;99.90;;;;;;5011494;28;20221;-71
2021/06/27 03:05:17;;;;;;;10.00;9.10;;;18.80;99.90;;;;;;5008409;28;20182;-70
2021/06/27 03:07:43;;;;;;;10.10;9.20;;;18.80;99.90;;;;;;4999737;28;20564;-70
2021/06/27 03:10:13;;;;;;;10.63;9.73;;;18.80;99.90;;;;;;5008201;28;20430;-74
2021/06/27 03:12:40;;;;;;;10.30;9.17;;;18.80;99.90;;;;;;5010162;28;20864;-71
2021/06/27 03:15:06;;;;;;;11.60;10.60;;;18.80;99.90;;;;;;5007774;28;20418;-71
2021/06/27 03:17:32;;;;;;;9.60;8.90;;;18.80;99.90;;;;;;4998012;28;20967;-70
2021/06/27 03:19:58;;;;;;;9.90;9.10;;;18.80;99.90;;;;;;5011374;28;20438;-72
2021/06/27 03:22:23;;;;;;;9.93;9.13;;;18.80;99.90;;;;;;5003052;28;20698;-72
2021/06/27 03:24:49;;;;;;;10.50;9.50;;;18.80;99.90;;;;;;5020298;28;20641;-73
2021/06/27 03:27:14;;;;;;;10.00;9.20;;;18.70;99.90;;;;;;5008881;28;20179;-72
2021/06/27 03:29:40;;;;;;;10.23;9.33;;;18.70;99.90;;;;;;5007933;28;20222;-73
2021/06/27 03:32:06;;;;;;;9.93;9.13;;;18.70;99.90;;;;;;5011406;28;20273;-72
2021/06/27 03:34:32;;;;;;;10.10;9.13;;;18.70;99.90;;;;;;5011387;28;20216;-72
2021/06/27 03:36:57;;;;;;;10.23;9.33;;;18.60;99.90;;;;;;5014587;28;20513;-72
2021/06/27 03:39:23;;;;;;;9.87;9.00;;;18.70;99.90;;;;;;4998739;28;20183;-72
2021/06/27 03:41:52;;;;;;;9.67;8.77;;;18.60;99.90;;;;;;5011948;28;20207;-71
2021/06/27 03:44:19;;;;;;;10.57;9.77;;;18.60;99.90;;;;;;5002100;28;20530;-71
2021/06/27 03:46:44;;;;;;;10.00;9.10;;;18.70;99.90;;;;;;5008505;28;20519;-72
2021/06/27 03:49:10;;;;;;;9.13;8.43;;;18.60;99.90;;;;;;4996323;28;20530;-72
2021/06/27 03:51:35;;;;;;;10.20;9.30;;;18.70;99.90;;;;;;5014323;28;20262;-69
2021/06/27 03:54:01;;;;;;;10.70;9.60;;;18.70;99.90;;;;;;5012940;28;20307;-74
2021/06/27 03:56:27;;;;;;;10.03;9.20;;;18.60;99.90;;;;;;5018557;28;20844;-72
2021/06/27 03:58:52;;;;;;;10.47;9.67;;;18.70;99.90;;;;;;4998487;28;20184;-72
2021/06/27 04:01:18;;;;;;;9.60;8.80;;;18.70;99.90;;;;;;5015587;28;20743;-72
2021/06/27 04:03:44;;;;;;;10.53;9.53;;;18.70;99.90;;;;;;5007965;28;20249;-73
2021/06/27 04:06:09;;;;;;;10.60;9.60;;;18.70;99.90;;;;;;5014328;28;20192;-72
2021/06/27 04:08:35;;;;;;;11.43;10.53;;;18.70;99.90;;;;;;5016426;28;20191;-72
2021/06/27 04:11:01;;;;;;;9.63;8.83;;;18.60;99.90;;;;;;5011343;28;20610;-71
2021/06/27 04:13:28;;;;;;;11.07;10.07;;;18.60;99.90;;;;;;5016107;28;20287;-72
2021/06/27 04:15:55;;;;;;;11.07;9.00;;;18.50;99.90;;;;;;5017464;28;20176;-71
2021/06/27 04:18:21;;;;;;;10.60;9.70;;;18.50;99.90;;;;;;4998800;28;20642;-71
2021/06/27 04:20:48;;;;;;;10.00;9.20;;;18.50;99.90;;;;;;5015481;28;20455;-72
2021/06/27 04:23:14;;;;;;;9.87;9.07;;;18.50;99.90;;;;;;5003766;28;20954;-71
2021/06/27 04:25:40;;;;;;;10.30;9.40;;;18.60;99.90;;;;;;5019126;28;20422;-72
2021/06/27 04:28:08;;;;;;;10.10;9.30;;;18.60;99.90;;;;;;5016377;28;20418;-72
2021/06/27 04:30:35;;;;;;;10.10;9.10;;;18.60;99.90;;;;;;5004780;28;20425;-72
2021/06/27 04:33:02;;;;;;;9.90;8.90;;;18.60;99.90;;;;;;5003723;28;20538;-72
2021/06/27 04:35:28;;;;;;;9.40;8.60;;;18.60;99.90;;;;;;5013629;28;20830;-71
2021/06/27 04:37:53;;;;;;;10.57;9.47;;;18.60;99.90;;;;;;5005997;28;20457;-72
2021/06/27 04:40:19;;;;;;;10.60;9.67;;;18.70;99.90;;;;;;5009193;28;20565;-72
2021/06/27 04:42:45;;;;;;;9.77;9.00;;;18.70;99.90;;;;;;5021189;28;20211;-72
2021/06/27 04:45:11;;;;;;;11.40;10.30;;;18.70;99.90;;;;;;5013805;28;20192;-72
2021/06/27 04:47:38;;;;;;;9.97;9.17;;;18.70;99.90;;;;;;5017451;28;20260;-73
2021/06/27 04:50:05;;;;;;;10.47;9.47;;;18.90;99.90;;;;;;5013253;28;20473;-71
2021/06/27 04:52:35;;;;;;;10.33;9.43;;;19.00;99.90;;;;;;5021341;28;20819;-72
2021/06/27 04:55:03;;;;;;;10.07;9.27;;;19.10;99.90;;;;;;5010673;28;21006;-73
2021/06/27 04:57:29;;;;;;;10.00;9.20;;;19.10;99.90;;;;;;5009428;28;20961;-71
2021/06/27 04:59:54;;;;;;;10.57;9.40;;;19.20;99.90;;;;;;5008112;28;20451;-72
2021/06/27 05:02:20;;;;;;;10.87;9.90;;;19.20;99.90;;;;;;5020854;28;20204;-72
2021/06/27 05:04:45;;;;;;;10.60;9.60;;;19.20;99.90;;;;;;5020514;28;20176;-71
2021/06/27 05:07:11;;;;;;;10.43;9.63;;;19.20;99.90;;;;;;5020912;28;20187;-73
2021/06/27 05:09:37;;;;;;;10.03;9.20;;;19.20;99.90;;;;;;5033556;28;20237;-72
2021/06/27 05:12:03;;;;;;;10.60;9.73;;;19.40;99.90;;;;;;5030190;28;20195;-73
2021/06/27 05:14:29;;;;;;;10.90;10.00;;;19.50;99.90;;;;;;5028549;28;20215;-73
2021/06/27 05:16:54;;;;;;;11.07;10.17;;;19.50;99.90;;;;;;5013011;28;20516;-72
2021/06/27 05:19:20;;;;;;;10.73;9.90;;;19.50;99.90;;;;;;5009993;28;20179;-71
2021/06/27 05:21:45;;;;;;;10.00;9.17;;;19.50;99.90;;;;;;5015492;28;20683;-75
2021/06/27 05:24:11;;;;;;;10.20;9.50;;;19.70;99.90;;;;;;5014004;28;20620;-75
2021/06/27 05:26:37;;;;;;;10.33;9.43;;;19.70;99.90;;;;;;5020741;28;20217;-75
2021/06/27 05:29:03;;;;;;;10.67;9.70;;;19.80;99.90;;;;;;5015928;28;20183;-77
2021/06/27 05:31:32;;;;;;;10.17;9.27;;;19.90;99.90;;;;;;5013692;28;20270;-78
2021/06/27 05:33:58;;;;;;;11.03;10.03;;;19.80;99.90;;;;;;5022580;28;20962;-79
2021/06/27 05:36:23;;;;;;;11.13;10.23;;;19.90;99.90;;;;;;5015366;28;21038;-77
2021/06/27 05:38:49;;;;;;;10.37;9.47;;;19.80;99.90;;;;;;5001978;28;20184;-76
2021/06/27 05:41:14;;;;;;;11.20;10.30;;;19.80;99.90;;;;;;4999843;28;20196;-77
2021/06/27 05:43:40;;;;;;;11.33;10.33;;;19.80;99.90;;;;;;5013777;28;20241;-77
2021/06/27 05:46:05;;;;;;;10.33;9.53;;;19.80;99.90;;;;;;5006217;28;20252;-77
2021/06/27 05:48:31;;;;;;;10.23;9.53;;;19.70;99.90;;;;;;5017471;28;20194;-78
2021/06/27 05:50:57;;;;;;;10.33;9.53;;;19.70;99.90;;;;;;5014869;28;20293;-77
2021/06/27 05:53:22;;;;;;;9.80;9.00;;;19.60;99.90;;;;;;5020219;28;20697;-77
2021/06/27 05:55:48;;;;;;;9.87;9.17;;;19.60;99.90;;;;;;5005122;28;20189;-76
2021/06/27 05:58:13;;;;;;;10.87;9.93;;;19.60;99.90;;;;;;5017911;28;20199;-77
2021/06/27 06:00:39;;;;;;;9.80;9.00;;;19.70;99.90;;;;;;5015716;28;20219;-77
2021/06/27 06:03:04;;;;;;;11.00;10.10;;;19.80;99.90;;;;;;5015672;28;20203;-78
2021/06/27 06:05:30;;;;;;;10.13;9.17;;;19.90;99.90;;;;;;5013673;28;20189;-77
2021/06/27 06:07:55;;;;;;;10.13;9.20;;;20.10;99.90;;;;;;5021774;28;20179;-78
2021/06/27 06:10:21;;;;;;;9.90;9.00;;;20.40;99.90;;;;;;5017559;28;20401;-78
2021/06/27 06:12:47;;;;;;;9.73;8.90;;;20.50;99.90;;;;;;5015175;28;20219;-78
2021/06/27 06:15:13;;;;;;;10.50;9.53;;;20.70;99.90;;;;;;5008655;28;20207;-78
2021/06/27 06:17:39;;;;;;;9.70;8.80;;;20.80;99.90;;;;;;5038099;28;20168;-79
2021/06/27 06:20:05;;;;;;;9.83;9.03;;;20.90;99.90;;;;;;5039518;28;20498;-79
2021/06/27 06:22:31;;;;;;;10.37;9.47;;;20.90;99.90;;;;;;5007972;28;20689;-79
2021/06/27 06:24:57;;;;;;;9.83;9.13;;;20.90;99.90;;;;;;5023004;28;20445;-79
2021/06/27 06:27:23;;;;;;;10.67;9.80;;;21.00;99.90;;;;;;5019085;28;20425;-79
2021/06/27 06:29:49;;;;;;;9.80;8.90;;;20.90;99.90;;;;;;5018049;28;20510;-79
2021/06/27 06:32:15;;;;;;;9.60;8.70;;;20.90;99.90;;;;;;5021572;28;20187;-79
2021/06/27 06:34:40;;;;;;;10.70;9.80;;;20.90;99.90;;;;;;5006598;28;20274;-78
2021/06/27 06:37:06;;;;;;;9.83;8.93;;;21.00;99.90;;;;;;5019007;28;20609;-79
2021/06/27 06:39:32;;;;;;;9.53;8.80;;;21.00;99.90;;;;;;5021163;28;20222;-78
2021/06/27 06:41:57;;;;;;;9.53;8.83;;;21.10;99.90;;;;;;5017353;28;20206;-79
2021/06/27 06:44:23;;;;;;;9.97;9.17;;;21.20;99.90;;;;;;5016794;28;20208;-78
2021/06/27 06:46:48;;;;;;;9.67;8.87;;;21.20;99.90;;;;;;5019930;28;20507;-79
2021/06/27 06:49:15;;;;;;;9.17;8.33;;;21.40;99.90;;;;;;5020360;28;20226;-79
2021/06/27 06:51:41;;;;;;;9.90;9.00;;;21.40;99.90;;;;;;5023328;28;20184;-79
2021/06/27 06:54:07;;;;;;;8.67;7.93;;;21.50;99.90;;;;;;5022248;28;20442;-79
2021/06/27 06:56:32;;;;;;;9.33;8.63;;;21.60;99.90;;;;;;5006509;28;20221;-79
2021/06/27 06:58:58;;;;;;;10.10;9.33;;;21.70;99.90;;;;;;5015675;28;20191;-79
2021/06/27 07:01:23;;;;;;;9.07;8.33;;;21.70;99.90;;;;;;5019922;28;20582;-78
2021/06/27 07:03:49;;;;;;;9.60;8.70;;;21.70;99.90;;;;;;5018229;28;20207;-78
2021/06/27 07:06:15;;;;;;;10.33;9.50;;;21.60;99.90;;;;;;5013364;28;20272;-78
2021/06/27 07:08:40;;;;;;;9.47;8.77;;;21.50;99.90;;;;;;5020493;28;20256;-78
2021/06/27 07:11:06;;;;;;;10.90;9.90;;;21.50;99.90;;;;;;5017103;28;20237;-79
2021/06/27 07:13:31;;;;;;;9.57;8.77;;;21.40;99.90;;;;;;5020727;28;20293;-79
2021/06/27 07:15:57;;;;;;;9.67;8.87;;;21.50;99.90;;;;;;5016381;28;20211;-78
2021/06/27 07:18:22;;;;;;;9.73;8.83;;;21.60;99.90;;;;;;5012452;28;20191;-79
2021/06/27 07:20:49;;;;;;;10.03;9.13;;;21.70;99.90;;;;;;5027663;28;20595;-79
2021/06/27 07:23:15;;;;;;;8.80;8.10;;;22.00;99.90;;;;;;5012874;28;20215;-79
2021/06/27 07:25:40;;;;;;;9.57;8.70;;;22.00;99.90;;;;;;5023683;28;20425;-78
2021/06/27 07:28:06;;;;;;;9.90;9.10;;;22.20;99.90;;;;;;5015718;28;20185;-79
2021/06/27 07:30:31;;;;;;;9.30;8.60;;;22.30;99.90;;;;;;5028455;28;20222;-79
2021/06/27 07:32:57;;;;;;;9.77;8.97;;;22.60;99.90;;;;;;5025266;28;20206;-79
2021/06/27 07:35:22;;;;;;;10.33;9.33;;;22.70;99.90;;;;;;5027725;28;20186;-79
2021/06/27 07:37:48;;;;;;;9.60;8.80;;;22.80;99.90;;;;;;5015819;28;20223;-78
2021/06/27 07:40:14;;;;;;;9.40;8.60;;;22.90;99.90;;;;;;5002249;28;20196;-78
2021/06/27 07:42:40;;;;;;;9.67;8.97;;;22.80;99.90;;;;;;5017053;28;20222;-78
2021/06/27 07:45:07;;;;;;;8.97;8.17;;;22.80;99.90;;;;;;5011132;28;20919;-78
2021/06/27 07:47:32;;;;;;;9.33;8.67;;;22.80;99.90;;;;;;5026551;28;20194;-78
2021/06/27 07:49:58;;;;;;;9.60;8.90;;;22.90;99.90;;;;;;5018102;28;20524;-78
2021/06/27 07:52:23;;;;;;;9.70;8.90;;;23.00;99.90;;;;;;5023164;28;20253;-79
2021/06/27 07:54:49;;;;;;;9.17;8.47;;;23.10;99.90;;;;;;5024805;28;20292;-78
2021/06/27 07:57:15;;;;;;;9.00;8.40;;;23.10;99.90;;;;;;5019321;28;20177;-78
2021/06/27 07:59:40;;;;;;;9.23;8.43;;;23.10;99.90;;;;;;5027851;28;20196;-78
2021/06/27 08:02:07;;;;;;;8.30;7.70;;;23.10;99.90;;;;;;5046012;28;20199;-77
2021/06/27 08:04:33;;;;;;;9.40;8.50;;;23.10;99.90;;;;;;5047523;28;20215;-78
2021/06/27 08:06:59;;;;;;;8.60;8.00;;;23.10;99.90;;;;;;5041005;28;20410;-78
2021/06/27 08:09:26;;;;;;;9.17;8.43;;;23.30;99.90;;;;;;5043307;28;20216;-78
2021/06/27 08:11:52;;;;;;;9.53;8.73;;;23.30;99.90;;;;;;5037009;28;20433;-78
2021/06/27 08:14:18;;;;;;;9.87;9.13;;;23.40;99.90;;;;;;5045883;28;20506;-78
2021/06/27 08:16:44;;;;;;;10.13;9.23;;;23.50;99.90;;;;;;5043462;28;20252;-78
2021/06/27 08:19:09;;;;;;;7.90;7.30;;;23.50;99.90;;;;;;5032866;28;20200;-78
2021/06/27 08:21:35;;;;;;;8.67;8.00;;;23.60;99.90;;;;;;5027696;28;20472;-78
2021/06/27 08:24:01;;;;;;;9.17;8.57;;;23.60;99.90;;;;;;5028585;28;20181;-78
2021/06/27 08:26:27;;;;;;;10.20;9.13;;;23.60;99.90;;;;;;5034801;28;20175;-79
2021/06/27 08:28:53;;;;;;;8.73;7.93;;;23.60;99.90;;;;;;5047921;28;20879;-77
2021/06/27 08:31:23;;;;;;;10.33;9.53;;;23.60;99.90;;;;;;5040755;28;20184;-79
2021/06/27 08:33:50;;;;;;;8.87;8.27;;;23.70;99.90;;;;;;5047558;28;20434;-79
2021/06/27 08:36:16;;;;;;;8.77;8.10;;;23.60;99.90;;;;;;5040929;28;20409;-78
2021/06/27 08:38:41;;;;;;;8.87;8.17;;;23.70;99.90;;;;;;5042604;28;20478;-80
2021/06/27 08:41:07;;;;;;;8.83;8.23;;;23.70;99.90;;;;;;5028372;28;20300;-78
2021/06/27 08:43:34;;;;;;;8.50;7.90;;;23.70;99.90;;;;;;5018189;28;20214;-78
2021/06/27 08:46:10;;;;;;;9.10;8.40;;;23.90;99.90;;;;;;5025050;28;20743;-78
2021/06/27 08:48:38;;;;;;;9.10;8.40;;;23.90;99.90;;;;;;5017703;28;20410;-79
2021/06/27 08:51:06;;;;;;;9.27;8.67;;;24.00;99.90;;;;;;5029583;28;20898;-79
2021/06/27 08:53:39;;;;;;;7.63;7.13;;;24.10;99.90;;;;;;5027562;28;20496;-78
2021/06/27 08:56:05;;;;;;;8.97;8.30;;;24.10;99.90;;;;;;5031077;28;20411;-79
2021/06/27 08:58:42;;;;;;;9.23;8.57;;;24.10;99.90;;;;;;5026954;28;20514;-79
2021/06/27 09:01:19;;;;;;;9.50;8.70;;;24.20;99.90;;;;;;5025800;28;20469;-78
2021/06/27 09:03:46;;;;;;;8.70;7.80;;;24.30;99.90;;;;;;5014440;28;20546;-78
2021/06/27 09:06:22;;;;;;;9.10;8.40;;;24.40;99.90;;;;;;5020474;28;20783;-79
2021/06/27 09:09:07;;;;;;;8.00;7.47;;;24.50;99.90;;;;;;5025439;28;20415;-79
2021/06/27 09:11:33;;;;;;;7.90;7.40;;;24.60;99.90;;;;;;5008872;28;20426;-79
2021/06/27 09:13:58;;;;;;;8.17;7.57;;;24.70;99.90;;;;;;5012430;28;20462;-79
2021/06/27 09:16:24;;;;;;;8.40;7.80;;;24.90;99.90;;;;;;5028447;28;20179;-79
2021/06/27 09:18:51;;;;;;;8.27;7.60;;;25.10;99.90;;;;;;5026377;28;20198;-79
2021/06/27 09:21:18;;;;;;;8.10;7.40;;;25.20;99.90;;;;;;5025808;28;20246;-79
2021/06/27 09:23:47;;;;;;;8.03;7.43;;;25.40;99.90;;;;;;5012788;28;20434;-79
2021/06/27 09:26:26;;;;;;;7.90;7.30;;;25.60;99.90;;;;;;5018160;28;20971;-79
2021/06/27 09:28:52;;;;;;;7.40;6.90;;;25.50;99.90;;;;;;5023956;28;20445;-78
2021/06/27 09:31:40;;;;;;;8.07;7.47;;;25.60;99.90;;;;;;5020062;28;20496;-79
2021/06/27 09:34:12;;;;;;;7.50;7.00;;;25.70;99.90;;;;;;5023864;28;20203;-78
2021/06/27 09:36:45;;;;;;;7.17;6.67;;;25.90;99.90;;;;;;5026173;28;20986;-80
2021/06/27 09:39:15;;;;;;;8.00;7.40;;;26.00;99.90;;;;;;5026105;28;20415;-79
2021/06/27 09:41:53;;;;;;;7.53;7.00;;;26.10;99.90;;;;;;5020018;28;20462;-78
2021/06/27 09:44:21;;;;;;;7.27;6.67;;;26.10;99.90;;;;;;5022053;28;20446;-78
2021/06/27 09:46:50;;;;;;;7.30;6.77;;;26.30;99.90;;;;;;5018453;28;20431;-79
2021/06/27 09:49:26;;;;;;;7.57;7.03;;;26.40;99.90;;;;;;5021908;28;20927;-78
2021/06/27 09:51:57;;;;;;;7.40;6.90;;;26.20;99.90;;;;;;5028972;28;20447;-78
2021/06/27 09:54:24;;;;;;;7.27;6.73;;;26.30;99.90;;;;;;5028745;28;20487;-78
2021/06/27 09:56:50;;;;;;;6.90;6.40;;;26.50;99.90;;;;;;5023503;28;20438;-79
2021/06/27 09:59:21;;;;;;;7.63;7.10;;;26.60;99.90;;;;;;5021802;28;20419;-79
2021/06/27 10:01:47;;;;;;;6.80;6.33;;;26.80;99.90;;;;;;5024518;28;20527;-79
2021/06/27 10:04:14;;;;;;;6.40;5.90;;;26.70;99.90;;;;;;5020462;28;20439;-78
2021/06/27 10:06:55;;;;;;;7.27;6.77;;;26.70;99.90;;;;;;5018867;28;20429;-77
2021/06/27 10:09:23;;;;;;;7.37;6.87;;;26.80;99.90;;;;;;5024958;28;20473;-79
2021/06/27 10:12:08;;;;;;;6.90;6.30;;;26.90;99.90;;;;;;5026389;28;20418;-79
2021/06/27 10:14:55;;;;;;;6.47;6.00;;;26.90;99.90;;;;;;5015151;28;20979;-78
2021/06/27 10:17:23;;;;;;;7.13;6.43;;;27.00;99.90;;;;;;5020928;28;20464;-78
2021/06/27 10:19:50;;;;;;;7.43;6.90;;;27.10;99.90;;;;;;5025577;28;20468;-78
2021/06/27 10:22:17;;;;;;;7.17;6.67;;;27.10;99.90;;;;;;5011858;28;20479;-78
2021/06/27 10:24:43;;;;;;;6.53;5.93;;;27.00;99.90;;;;;;5025150;28;20425;-78
2021/06/27 10:27:10;;;;;;;6.43;5.93;;;27.00;99.90;;;;;;5017317;28;20438;-78
2021/06/27 10:29:38;;;;;;;6.73;6.23;;;27.10;99.90;;;;;;5017872;28;20431;-78
2021/06/27 10:32:05;;;;;;;6.63;6.13;;;27.10;99.90;;;;;;5021622;28;20417;-78
2021/06/27 10:34:31;;;;;;;6.40;5.90;;;27.20;99.90;;;;;;5017758;28;20827;-79
2021/06/27 10:37:12;;;;;;;6.33;5.93;;;27.40;99.90;;;;;;5017989;28;20411;-78
2021/06/27 10:39:39;;;;;;;7.00;6.50;;;27.50;99.90;;;;;;5009192;28;20430;-79
2021/06/27 10:42:07;;;;;;;5.90;5.50;;;27.80;99.90;;;;;;5021003;28;20557;-78
2021/06/27 10:44:38;;;;;;;5.97;5.57;;;27.70;99.90;;;;;;5022034;28;20454;-78
2021/06/27 10:47:05;;;;;;;6.47;5.97;;;27.80;99.90;;;;;;5024446;28;20423;-77
2021/06/27 10:49:31;;;;;;;6.13;5.67;;;27.80;99.90;;;;;;5021170;28;20543;-79
2021/06/27 10:52:06;;;;;;;5.97;5.57;;;27.90;99.90;;;;;;5023373;28;20468;-79
2021/06/27 10:54:36;;;;;;;7.10;6.50;;;27.70;99.90;;;;;;5005638;28;20232;-79
2021/06/27 10:57:06;;;;;;;6.33;5.93;;;27.80;99.90;;;;;;5016282;28;20875;-79
2021/06/27 10:59:51;;;;;;;6.33;5.73;;;28.00;99.90;;;;;;5020304;28;20430;-78
2021/06/27 11:02:30;;;;;;;5.90;5.27;;;28.10;99.90;;;;;;5010139;28;20451;-78
2021/06/27 11:05:16;;;;;;;5.63;5.23;;;28.10;99.90;;;;;;5020839;28;20417;-79
2021/06/27 11:07:44;;;;;;;6.43;5.83;;;28.20;99.90;;;;;;5015059;28;20425;-79
2021/06/27 11:10:22;;;;;;;6.53;6.03;;;28.20;99.90;;;;;;5014476;28;20966;-78
2021/06/27 11:13:03;;;;;;;5.90;5.50;;;28.30;99.90;;;;;;5011456;28;20576;-79
2021/06/27 11:15:38;;;;;;;4.77;4.47;;;27.90;99.90;;;;;;5010799;28;20947;-78
2021/06/27 11:18:06;;;;;;;5.67;5.27;;;28.00;99.90;;;;;;5016900;28;20446;-78
2021/06/27 11:20:35;;;;;;;5.87;5.37;;;28.10;99.90;;;;;;5017688;28;21041;-79
2021/06/27 11:23:01;;;;;;;5.20;4.90;;;28.30;99.90;;;;;;5001327;28;20991;-78
2021/06/27 11:25:50;;;;;;;6.47;5.97;;;28.50;99.90;;;;;;5029877;28;20420;-79
2021/06/27 11:28:19;;;;;;;5.50;5.10;;;28.70;99.90;;;;;;5022919;28;20407;-79
2021/06/27 11:30:46;;;;;;;6.33;5.93;;;28.60;99.90;;;;;;5019015;28;21298;-78
2021/06/27 11:33:22;;;;;;;6.67;5.67;;;28.70;99.90;;;;;;5023386;28;20484;-79
2021/06/27 11:35:52;;;;;;;5.90;5.47;;;28.80;99.90;;;;;;5024610;28;20430;-78
2021/06/27 11:38:43;;;;;;;6.63;6.10;;;28.70;99.90;;;;;;5015303;28;20418;-76
2021/06/27 11:41:32;;;;;;;6.90;6.20;;;28.80;99.90;;;;;;5013760;28;20498;-78
2021/06/27 11:44:00;;;;;;;7.80;5.57;;;28.90;99.90;;;;;;5012103;28;20450;-79
2021/06/27 11:46:39;;;;;;;10.83;7.80;;;29.00;99.90;;;;;;5010636;28;20411;-80
2021/06/27 11:49:16;;;;;;;8.07;6.20;;;29.20;99.90;;;;;;4997682;28;20419;-77
2021/06/27 11:51:47;;;;;;;11.77;6.93;;;29.40;99.90;;;;;;5014808;28;20437;-77
2021/06/27 11:54:15;;;;;;;21.37;11.30;;;29.60;99.90;;;;;;5001722;28;20439;-78
2021/06/27 11:56:59;;;;;;;11.00;6.60;;;29.70;99.90;;;;;;5004769;28;20640;-77
2021/06/27 11:59:28;;;;;;;268.67;254.30;;;29.50;99.90;;;;;;5000727;28;20461;-76
2021/06/27 12:02:06;;;;;;;182.70;172.50;;;;;;;;;;4994469;28;20472;-78
2021/06/27 12:04:53;;;;;;;306.40;292.23;;;29.40;99.90;;;;;;5009186;28;20426;-77
2021/06/27 12:07:43;;;;;;;13.63;8.30;;;29.70;99.90;;;;;;5019020;28;20442;-80
2021/06/27 12:10:18;;;;;;;11.70;7.83;;;29.80;99.90;;;;;;5022952;28;20437;-76
2021/06/27 12:12:48;;;;;;;8.80;6.10;;;30.10;99.90;;;;;;5010436;28;20453;-78
2021/06/27 12:15:14;;;;;;;6.83;5.90;;;30.20;99.90;;;;;;5015689;28;20414;-77
2021/06/27 12:17:44;;;;;;;6.53;5.77;;;30.50;99.90;;;;;;5004233;28;20519;-78
2021/06/27 12:20:12;;;;;;;10.80;7.60;;;30.70;99.90;;;;;;5018161;28;20172;-78
2021/06/27 12:22:55;;;;;;;8.57;6.93;;;31.00;99.90;;;;;;5003678;28;20553;-76
2021/06/27 12:25:35;;;;;;;9.70;7.80;;;31.30;99.90;;;;;;5019592;28;20422;-76
2021/06/27 12:28:04;;;;;;;8.43;6.83;;;31.40;99.90;;;;;;5009694;28;20421;-76
2021/06/27 12:30:38;;;;;;;8.23;6.57;;;31.50;99.90;;;;;;5003984;28;20888;-77
2021/06/27 12:33:06;;;;;;;8.73;6.63;;;31.80;99.90;;;;;;5017628;28;20441;-77
2021/06/27 12:35:34;;;;;;;6.83;6.17;;;31.90;99.90;;;;;;5024194;28;20487;-78
2021/06/27 12:38:01;;;;;;;6.20;5.70;;;32.00;99.90;;;;;;5023506;28;20945;-78
2021/06/27 12:40:27;;;;;;;5.97;5.43;;;31.70;97.80;;;;;;5013923;28;20932;-77
2021/06/27 12:42:53;;;;;;;9.63;7.10;;;31.20;98.00;;;;;;5021647;28;20472;-78
2021/06/27 12:45:20;;;;;;;7.73;6.10;;;31.20;98.70;;;;;;5021472;28;20419;-79
2021/06/27 12:47:46;;;;;;;6.23;5.63;;;30.90;99.00;;;;;;5020698;28;20185;-78